Time;durP1;ratioP1;P1;durP2;ratioP2;P2;SDS_P1;SDS_P2;PMS_P1;PMS_P2;Temp;Humidity;BMP_temperature;BMP_pressure;BME280_temperature;BME280_humidity;BME280_pressure;Samples;Min_cycle;Max_cycle;Signal;HPM_P1;HPM_P2
2023/11/06 00:01:07;;;;;;;13.73;3.20;;;;;;;9.01;100.00;99301.28;6081279;19;20006;-73
2023/11/06 00:03:09;;;;;;;12.70;2.85;;;;;;;8.98;100.00;99311.94;6081375;19;20517;-73
2023/11/06 00:05:15;;;;;;;5.43;2.33;;;;;;;8.97;100.00;99306.78;6080691;19;20010;-73
2023/11/06 00:07:20;;;;;;;8.23;2.75;;;;;;;8.95;100.00;99306.03;6075587;19;20010;-74
2023/11/06 00:09:25;;;;;;;6.30;2.63;;;;;;;8.97;100.00;99302.38;6073992;19;20002;-73
2023/11/06 00:11:30;;;;;;;9.93;3.55;;;;;;;8.95;100.00;99304.28;6078990;19;20022;-72
2023/11/06 00:13:35;;;;;;;7.07;2.60;;;;;;;8.97;100.00;99310.22;6080642;19;20018;-73
2023/11/06 00:15:40;;;;;;;8.98;2.78;;;;;;;8.97;100.00;99317.25;6079832;19;21162;-73
2023/11/06 00:17:43;;;;;;;8.70;3.55;;;;;;;9.01;100.00;99316.16;6081641;19;20010;-73
2023/11/06 00:19:48;;;;;;;12.55;4.25;;;;;;;8.97;100.00;99312.84;6076941;19;20022;-73
2023/11/06 00:21:53;;;;;;;7.55;3.25;;;;;;;8.97;100.00;99315.47;6081588;19;20017;-73
2023/11/06 00:24:02;;;;;;;11.63;3.28;;;;;;;8.91;100.00;99315.84;6078862;19;20530;-72
2023/11/06 00:26:08;;;;;;;6.82;2.90;;;;;;;8.89;100.00;99319.47;6080002;19;20046;-73
2023/11/06 00:28:13;;;;;;;4.65;2.33;;;;;;;8.89;100.00;99319.47;6076612;19;20015;-72
2023/11/06 00:30:18;;;;;;;4.38;2.00;;;;;;;8.95;100.00;99329.59;6078907;19;20002;-72
2023/11/06 00:32:23;;;;;;;4.93;2.13;;;;;;;8.94;100.00;99338.41;6079412;19;20011;-72
2023/11/06 00:34:28;;;;;;;3.40;2.05;;;;;;;8.93;100.00;99347.19;6078966;19;20048;-73
2023/11/06 00:36:33;;;;;;;8.23;2.47;;;;;;;8.99;100.00;99339.81;6080268;19;20042;-72
2023/11/06 00:38:39;;;;;;;12.02;2.83;;;;;;;8.98;100.00;99337.31;6077347;19;20478;-73
2023/11/06 00:40:48;;;;;;;7.35;2.40;;;;;;;9.01;100.00;99350.22;6082140;19;20030;-73
2023/11/06 00:42:53;;;;;;;5.03;2.00;;;;;;;9.01;100.00;99363.31;6080466;19;20076;-74
2023/11/06 00:44:58;;;;;;;5.30;2.10;;;;;;;9.01;100.00;99352.84;6081287;19;20011;-73
2023/11/06 00:47:03;;;;;;;5.25;2.40;;;;;;;8.98;100.00;99350.41;6079223;19;20043;-73
2023/11/06 00:49:06;;;;;;;7.90;2.33;;;;;;;9.00;100.00;99352.00;6077909;19;20517;-73
2023/11/06 00:51:11;;;;;;;9.40;2.97;;;;;;;8.98;100.00;99360.88;6076701;19;21579;-74
2023/11/06 00:53:16;;;;;;;5.88;2.40;;;;;;;9.00;100.00;99366.84;6076243;19;20106;-73
2023/11/06 00:55:21;;;;;;;10.23;3.08;;;;;;;8.98;100.00;99361.72;6081323;19;20043;-73
2023/11/06 00:57:29;;;;;;;4.63;2.70;;;;;;;9.02;100.00;99357.13;6079049;19;20010;-75
2023/11/06 00:59:34;;;;;;;10.70;3.53;;;;;;;9.06;100.00;99355.16;6075442;19;20003;-74
2023/11/06 01:01:39;;;;;;;6.20;2.67;;;;;;;9.06;100.00;99355.16;6078484;19;20026;-73
2023/11/06 01:03:44;;;;;;;9.35;3.65;;;;;;;9.07;100.00;99356.88;6078575;19;20013;-73
2023/11/06 01:05:52;;;;;;;4.10;2.20;;;;;;;9.05;100.00;99354.34;6072464;19;20034;-72
2023/11/06 01:07:57;;;;;;;5.38;3.08;;;;;;;9.07;100.00;99355.09;6077114;19;20762;-73
2023/11/06 01:10:02;;;;;;;9.13;2.95;;;;;;;9.10;100.00;99364.56;6076635;19;20688;-72
2023/11/06 01:12:09;;;;;;;8.00;2.65;;;;;;;9.09;100.00;99358.47;6074024;19;19999;-73
2023/11/06 01:14:16;;;;;;;9.02;2.75;;;;;;;9.10;100.00;99385.53;6078994;19;20491;-75
2023/11/06 01:16:21;;;;;;;10.68;2.80;;;;;;;9.09;100.00;99366.34;6077605;19;20010;-74
2023/11/06 01:18:26;;;;;;;6.25;2.47;;;;;;;9.07;100.00;99373.44;6078333;19;20582;-73
2023/11/06 01:20:33;;;;;;;15.43;3.45;;;;;;;8.99;100.00;99379.13;6077390;19;20030;-73
2023/11/06 01:22:40;;;;;;;5.97;2.33;;;;;;;9.00;100.00;99383.44;6078804;19;20017;-73
2023/11/06 01:24:45;;;;;;;6.30;2.58;;;;;;;8.98;100.00;99394.94;6077138;19;20452;-73
2023/11/06 01:26:51;;;;;;;6.70;2.42;;;;;;;8.98;100.00;99394.94;6075610;19;20008;-73
2023/11/06 01:28:53;;;;;;;7.78;2.55;;;;;;;8.98;100.00;99400.19;6076191;19;20078;-73
2023/11/06 01:31:04;;;;;;;9.40;3.35;;;;;;;9.00;100.00;99396.53;6078566;19;20010;-73
2023/11/06 01:33:08;;;;;;;4.63;2.55;;;;;;;8.98;100.00;99394.94;6078109;19;20021;-73
2023/11/06 01:35:14;;;;;;;6.93;2.70;;;;;;;9.01;100.00;99406.09;6077311;19;20002;-73
2023/11/06 01:37:20;;;;;;;11.15;2.70;;;;;;;9.01;100.00;99418.34;6076647;19;20536;-74
2023/11/06 01:39:25;;;;;;;14.05;3.28;;;;;;;9.04;100.00;99425.19;6076000;19;20006;-73
2023/11/06 01:41:30;;;;;;;6.18;2.67;;;;;;;9.07;100.00;99435.50;6080685;19;20491;-73
2023/11/06 01:43:35;;;;;;;10.25;3.65;;;;;;;9.05;100.00;99438.19;6079692;19;19999;-75
2023/11/06 01:45:41;;;;;;;13.07;2.97;;;;;;;9.02;100.00;99439.19;6079856;19;20013;-74
2023/11/06 01:47:50;;;;;;;9.73;2.90;;;;;;;9.01;100.00;99429.66;6080757;19;20006;-73
2023/11/06 01:49:56;;;;;;;8.88;3.03;;;;;;;9.04;100.00;99433.06;6080289;19;20094;-75
2023/11/06 01:52:01;;;;;;;10.50;3.50;;;;;;;8.98;100.00;99429.00;6078068;19;20006;-74
2023/11/06 01:54:07;;;;;;;8.45;4.40;;;;;;;9.04;100.00;99427.81;6077102;19;20038;-72
2023/11/06 01:56:13;;;;;;;10.52;3.83;;;;;;;9.00;100.00;99429.75;6078886;19;20110;-72
2023/11/06 01:58:21;;;;;;;10.60;4.15;;;;;;;9.03;100.00;99421.72;6074346;19;20009;-75
2023/11/06 02:00:27;;;;;;;14.02;3.90;;;;;;;9.01;100.00;99426.22;6072271;19;20016;-73
2023/11/06 02:02:33;;;;;;;6.85;3.97;;;;;;;9.05;100.00;99426.88;6075111;19;19999;-73
2023/11/06 02:04:47;;;;;;;17.90;4.03;;;;;;;8.97;100.00;99424.69;6076206;19;20080;-73
2023/11/06 02:06:53;;;;;;;7.15;3.42;;;;;;;8.89;100.00;99430.34;6077098;19;20079;-73
2023/11/06 02:08:57;;;;;;;12.68;3.28;;;;;;;8.87;100.00;99433.97;6075404;19;20007;-73
2023/11/06 02:11:05;;;;;;;9.43;3.70;;;;;;;8.84;100.00;99423.69;6077274;19;20023;-72
2023/11/06 02:13:08;;;;;;;9.13;3.45;;;;;;;8.82;100.00;99433.38;6070401;19;20034;-73
2023/11/06 02:15:14;;;;;;;8.02;3.08;;;;;;;8.77;100.00;99431.88;6077145;19;20002;-72
2023/11/06 02:17:17;;;;;;;13.63;3.30;;;;;;;8.75;100.00;99428.50;6077270;19;20511;-73
2023/11/06 02:19:22;;;;;;;9.32;2.65;;;;;;;8.75;100.00;99436.38;6077600;19;20011;-72
2023/11/06 02:21:30;;;;;;;7.43;2.85;;;;;;;8.74;100.00;99439.91;6078079;19;20006;-73
2023/11/06 02:23:37;;;;;;;9.43;2.40;;;;;;;8.73;100.00;99443.44;6075842;19;20423;-73
2023/11/06 02:25:42;;;;;;;6.75;2.97;;;;;;;8.69;100.00;99441.94;6077417;19;20014;-73
2023/11/06 02:27:46;;;;;;;10.32;2.50;;;;;;;8.67;100.00;99437.72;6076928;19;20006;-72
2023/11/06 02:29:51;;;;;;;7.63;2.83;;;;;;;8.66;100.00;99454.34;6077627;19;20529;-72
2023/11/06 02:31:57;;;;;;;10.95;3.17;;;;;;;8.70;100.00;99448.03;6076456;19;20034;-71
2023/11/06 02:34:03;;;;;;;6.18;2.60;;;;;;;8.67;100.00;99459.50;6073179;19;20006;-72
2023/11/06 02:36:09;;;;;;;8.75;3.00;;;;;;;8.69;100.00;99454.19;6074462;19;20066;-71
2023/11/06 02:38:14;;;;;;;7.28;2.22;;;;;;;8.64;100.00;99448.38;6075749;19;20014;-71
2023/11/06 02:40:22;;;;;;;5.75;2.70;;;;;;;8.61;100.00;99459.00;6076950;19;20010;-72
2023/11/06 02:42:27;;;;;;;9.02;3.00;;;;;;;8.59;100.00;99466.94;6075490;19;20018;-72
2023/11/06 02:44:32;;;;;;;11.02;3.28;;;;;;;8.62;100.00;99482.50;6074806;19;20581;-71
2023/11/06 02:46:37;;;;;;;8.20;2.75;;;;;;;8.61;100.00;99480.81;6076371;19;20008;-72
2023/11/06 02:48:39;;;;;;;9.05;2.70;;;;;;;8.56;100.00;99481.06;6074900;19;20014;-73
2023/11/06 02:50:44;;;;;;;6.65;2.45;;;;;;;8.62;100.00;99484.25;6075247;19;20055;-71
2023/11/06 02:52:47;;;;;;;9.60;2.92;;;;;;;8.57;100.00;99485.34;6073741;19;20007;-72
2023/11/06 02:54:52;;;;;;;8.25;2.72;;;;;;;8.56;100.00;99483.66;6076363;19;20033;-72
2023/11/06 02:57:00;;;;;;;4.35;2.30;;;;;;;8.58;100.00;99496.66;6075428;19;20033;-72
2023/11/06 02:59:07;;;;;;;8.15;2.45;;;;;;;8.56;100.00;99504.63;6075253;19;20017;-72
2023/11/06 03:01:12;;;;;;;13.02;3.17;;;;;;;8.62;100.00;99498.19;6072734;19;21662;-72
2023/11/06 03:03:20;;;;;;;9.38;2.63;;;;;;;8.62;100.00;99498.19;6074105;19;20007;-72
2023/11/06 03:05:25;;;;;;;6.72;2.30;;;;;;;8.62;100.00;99502.59;6076369;19;20016;-71
2023/11/06 03:07:28;;;;;;;9.07;2.90;;;;;;;8.59;100.00;99503.59;6077738;19;20087;-71
2023/11/06 03:09:35;;;;;;;27.88;3.35;;;;;;;8.60;100.00;99499.22;6077136;19;20510;-72
2023/11/06 03:11:40;;;;;;;12.93;2.85;;;;;;;8.55;100.00;99502.91;6076494;19;20030;-72
2023/11/06 03:13:48;;;;;;;9.15;3.15;;;;;;;8.51;100.00;99513.66;6074141;19;20689;-72
2023/11/06 03:15:56;;;;;;;7.45;2.78;;;;;;;8.49;100.00;99503.25;6075499;19;20010;-72
2023/11/06 03:18:01;;;;;;;10.63;2.60;;;;;;;8.52;100.00;99503.06;6072163;19;20660;-72
2023/11/06 03:20:10;;;;;;;12.38;2.65;;;;;;;8.48;100.00;99513.81;6075956;19;20485;-72
2023/11/06 03:22:16;;;;;;;10.15;2.50;;;;;;;8.44;100.00;99513.13;6072643;19;20656;-73
2023/11/06 03:24:21;;;;;;;4.15;2.28;;;;;;;8.46;100.00;99513.88;6077356;19;20416;-72
2023/11/06 03:26:23;;;;;;;10.23;3.08;;;;;;;8.41;100.00;99513.28;6074203;19;20030;-72
2023/11/06 03:28:28;;;;;;;7.10;2.25;;;;;;;8.43;100.00;99521.06;6075982;19;20010;-73
2023/11/06 03:30:38;;;;;;;10.57;2.80;;;;;;;8.45;100.00;99519.19;6076822;19;20006;-72
2023/11/06 03:32:44;;;;;;;7.40;2.75;;;;;;;8.49;100.00;99520.72;6076614;19;20011;-73
2023/11/06 03:34:49;;;;;;;7.90;2.25;;;;;;;8.50;100.00;99525.88;6071025;19;20002;-72
2023/11/06 03:36:54;;;;;;;9.90;3.03;;;;;;;8.50;100.00;99520.63;6077764;19;20021;-73
2023/11/06 03:38:59;;;;;;;6.43;2.45;;;;;;;8.56;100.00;99519.47;6075946;19;20014;-73
2023/11/06 03:41:01;;;;;;;6.40;3.20;;;;;;;8.57;100.00;99524.63;6073552;19;20017;-73
2023/11/06 03:43:09;;;;;;;7.88;3.10;;;;;;;8.55;100.00;99525.63;6073847;19;20037;-73
2023/11/06 03:45:11;;;;;;;8.30;2.63;;;;;;;8.50;100.00;99525.88;6073229;19;20007;-73
2023/11/06 03:47:19;;;;;;;7.65;3.15;;;;;;;8.50;100.00;99535.50;6073779;19;20029;-73
2023/11/06 03:49:25;;;;;;;10.52;2.25;;;;;;;8.55;100.00;99541.34;6073443;19;20041;-72
2023/11/06 03:51:27;;;;;;;8.30;2.13;;;;;;;8.58;100.00;99541.16;6074494;19;20007;-73
2023/11/06 03:53:33;;;;;;;6.22;2.05;;;;;;;8.52;100.00;99528.41;6071888;19;20115;-73
2023/11/06 03:55:38;;;;;;;5.68;2.15;;;;;;;8.55;100.00;99528.25;6074633;19;20011;-73
2023/11/06 03:57:44;;;;;;;9.07;2.30;;;;;;;8.52;100.00;99538.88;6075448;19;20110;-73
2023/11/06 03:59:49;;;;;;;5.43;2.47;;;;;;;8.51;100.00;99532.81;6073555;19;20030;-73
2023/11/06 04:01:54;;;;;;;11.77;2.15;;;;;;;8.46;100.00;99534.81;6071396;19;20014;-73
2023/11/06 04:04:00;;;;;;;19.95;2.33;;;;;;;8.45;100.00;99541.00;6071140;19;20454;-73
2023/11/06 04:06:07;;;;;;;4.25;1.85;;;;;;;8.41;100.00;99547.31;6072289;19;20014;-73
2023/11/06 04:08:12;;;;;;;4.60;1.80;;;;;;;8.39;100.00;99540.44;6072290;19;20074;-73
2023/11/06 04:10:20;;;;;;;4.70;2.15;;;;;;;8.35;100.00;99534.53;6072405;19;20007;-73
2023/11/06 04:12:25;;;;;;;4.93;1.63;;;;;;;8.40;100.00;99543.00;6067275;19;20439;-72
2023/11/06 04:14:30;;;;;;;4.47;1.98;;;;;;;8.39;100.00;99538.69;6065855;19;20007;-72
2023/11/06 04:16:35;;;;;;;1.90;1.70;;;;;;;8.33;100.00;99545.06;6071035;19;20572;-73
2023/11/06 04:18:40;;;;;;;8.95;2.08;;;;;;;8.31;100.00;99536.44;6074883;19;20068;-73
2023/11/06 04:20:48;;;;;;;12.88;2.97;;;;;;;8.32;100.00;99545.13;6074818;19;20090;-73
2023/11/06 04:22:53;;;;;;;2.70;1.25;;;;;;;8.34;100.00;99546.72;6073402;19;20015;-73
2023/11/06 04:24:58;;;;;;;4.63;1.67;;;;;;;8.26;100.00;99543.66;6072891;19;20853;-73
2023/11/06 04:27:03;;;;;;;12.85;2.28;;;;;;;8.27;100.00;99550.63;6079920;19;20014;-73
2023/11/06 04:29:08;;;;;;;3.22;1.63;;;;;;;8.26;100.00;99571.63;6080361;19;20027;-73
2023/11/06 04:31:14;;;;;;;5.30;2.55;;;;;;;8.30;100.00;99553.06;6081640;19;20002;-73
2023/11/06 04:33:17;;;;;;;13.48;2.45;;;;;;;8.36;100.00;99560.59;6075183;19;20015;-74
2023/11/06 04:35:22;;;;;;;6.88;1.65;;;;;;;8.39;100.00;99566.59;6079410;19;20027;-73
2023/11/06 04:37:29;;;;;;;13.23;2.05;;;;;;;8.32;100.00;99559.06;6077747;19;20475;-73
2023/11/06 04:39:34;;;;;;;8.50;1.95;;;;;;;8.32;100.00;99566.06;6077821;19;20689;-73
2023/11/06 04:41:41;;;;;;;2.60;1.52;;;;;;;8.37;100.00;99571.91;6080537;19;20002;-72
2023/11/06 04:43:46;;;;;;;3.55;1.48;;;;;;;8.31;100.00;99580.09;6077368;19;20336;-73
2023/11/06 04:45:51;;;;;;;3.35;1.60;;;;;;;8.31;100.00;99575.69;6076317;19;20010;-73
2023/11/06 04:47:56;;;;;;;6.80;1.55;;;;;;;8.32;100.00;99584.38;6078833;19;20013;-72
2023/11/06 04:49:58;;;;;;;5.90;1.83;;;;;;;8.34;100.00;99586.00;6080238;19;20015;-73
2023/11/06 04:52:03;;;;;;;7.93;1.70;;;;;;;8.36;100.00;99580.69;6078157;19;20269;-74
2023/11/06 04:54:11;;;;;;;6.80;2.22;;;;;;;8.31;100.00;99574.84;6075133;19;20006;-73
2023/11/06 04:56:16;;;;;;;7.40;1.75;;;;;;;8.29;100.00;99579.31;6079432;19;20017;-73
2023/11/06 04:58:23;;;;;;;4.70;2.33;;;;;;;8.26;100.00;99588.16;6076891;19;20017;-74
2023/11/06 05:00:28;;;;;;;8.80;1.80;;;;;;;8.21;100.00;99577.09;6071683;19;20079;-72
2023/11/06 05:02:35;;;;;;;5.47;1.73;;;;;;;8.27;100.00;99579.41;6076027;19;20014;-72
2023/11/06 05:04:40;;;;;;;3.65;1.20;;;;;;;8.23;100.00;99577.84;6077785;19;20046;-73
2023/11/06 05:06:47;;;;;;;8.80;2.33;;;;;;;8.25;100.00;99578.63;6075060;19;20002;-73
2023/11/06 05:08:53;;;;;;;9.32;2.00;;;;;;;8.28;100.00;99593.34;6079907;19;20450;-73
2023/11/06 05:11:00;;;;;;;6.95;1.60;;;;;;;8.21;100.00;99592.78;6081374;19;20017;-73
2023/11/06 05:13:05;;;;;;;5.85;1.60;;;;;;;8.21;100.00;99591.94;6076784;19;20011;-73
2023/11/06 05:15:12;;;;;;;4.00;1.77;;;;;;;8.26;100.00;99587.31;6077817;19;20014;-73
2023/11/06 05:17:17;;;;;;;3.53;1.67;;;;;;;8.30;100.00;99594.09;6076519;19;20003;-73
2023/11/06 05:19:22;;;;;;;3.10;1.50;;;;;;;8.29;100.00;99601.13;6075441;19;21245;-73
2023/11/06 05:21:28;;;;;;;7.15;1.60;;;;;;;8.33;100.00;99604.41;6078068;19;20078;-74
2023/11/06 05:23:33;;;;;;;2.90;1.58;;;;;;;8.24;100.00;99610.97;6074485;19;20007;-73
2023/11/06 05:25:38;;;;;;;5.18;1.50;;;;;;;8.29;100.00;99608.97;6078098;19;20024;-73
2023/11/06 05:27:46;;;;;;;10.13;2.42;;;;;;;8.29;100.00;99615.94;6078115;19;20462;-73
2023/11/06 05:29:48;;;;;;;8.98;1.98;;;;;;;8.26;100.00;99614.34;6080295;19;20009;-74
2023/11/06 05:31:53;;;;;;;3.50;1.85;;;;;;;8.30;100.00;99618.50;6077599;19;20094;-72
2023/11/06 05:33:58;;;;;;;7.38;2.10;;;;;;;8.25;100.00;99612.66;6073214;19;20034;-73
2023/11/06 05:36:03;;;;;;;7.47;2.08;;;;;;;8.26;100.00;99614.34;6077780;19;20018;-71
2023/11/06 05:38:08;;;;;;;8.90;2.58;;;;;;;8.36;100.00;99606.88;6077530;19;20712;-72
2023/11/06 05:40:15;;;;;;;7.35;2.58;;;;;;;8.32;100.00;99616.66;6079102;19;20367;-74
2023/11/06 05:42:20;;;;;;;3.22;1.98;;;;;;;8.36;100.00;99623.41;6076486;19;20018;-73
2023/11/06 05:44:25;;;;;;;12.40;2.47;;;;;;;8.38;100.00;99625.97;6079142;19;20014;-73
2023/11/06 05:46:29;;;;;;;2.92;1.60;;;;;;;8.32;100.00;99627.13;6074395;19;20401;-73
2023/11/06 05:48:34;;;;;;;13.05;3.22;;;;;;;8.41;100.00;99631.06;6077267;19;20002;-73
2023/11/06 05:50:40;;;;;;;5.43;3.08;;;;;;;8.39;100.00;99626.81;6079900;19;20002;-73
2023/11/06 05:52:45;;;;;;;12.13;3.03;;;;;;;8.35;100.00;99626.97;6074226;19;20502;-72
2023/11/06 05:54:52;;;;;;;11.20;2.58;;;;;;;8.28;100.00;99627.34;6076634;19;20557;-73
2023/11/06 05:56:57;;;;;;;4.90;2.15;;;;;;;8.32;100.00;99634.13;6075921;19;20010;-73
2023/11/06 05:59:03;;;;;;;12.02;2.67;;;;;;;8.32;100.00;99621.91;6078355;19;20011;-73
2023/11/06 06:01:11;;;;;;;12.18;2.83;;;;;;;8.33;100.00;99634.06;6079008;19;21260;-73
2023/11/06 06:03:16;;;;;;;11.43;2.35;;;;;;;8.35;100.00;99636.59;6077960;19;20014;-73
2023/11/06 06:05:22;;;;;;;12.13;3.13;;;;;;;8.39;100.00;99632.91;6076472;19;20014;-73
2023/11/06 06:07:27;;;;;;;9.23;2.55;;;;;;;8.33;100.00;99643.69;6078107;19;20007;-73
2023/11/06 06:09:32;;;;;;;3.05;2.00;;;;;;;8.32;100.00;99642.84;6077809;19;20031;-74
2023/11/06 06:11:38;;;;;;;3.47;2.42;;;;;;;8.29;100.00;99656.09;6078577;19;20066;-74
2023/11/06 06:13:45;;;;;;;8.88;2.65;;;;;;;8.33;100.00;99651.53;6078952;19;20101;-74
2023/11/06 06:15:51;;;;;;;12.02;3.38;;;;;;;8.31;100.00;99653.38;6075089;19;20042;-74
2023/11/06 06:18:01;;;;;;;7.07;2.00;;;;;;;8.35;100.00;99660.16;6074234;19;20090;-74
2023/11/06 06:20:11;;;;;;;17.27;2.33;;;;;;;8.38;100.00;99662.63;6076927;19;20003;-73
2023/11/06 06:22:16;;;;;;;9.00;2.30;;;;;;;8.36;100.00;99660.06;6077656;19;20034;-74
2023/11/06 06:24:21;;;;;;;9.05;2.17;;;;;;;8.28;100.00;99659.59;6077019;19;20335;-74
2023/11/06 06:26:26;;;;;;;4.88;2.60;;;;;;;8.27;100.00;99675.41;6077921;19;20006;-72
2023/11/06 06:28:32;;;;;;;11.60;2.15;;;;;;;8.24;100.00;99676.41;6077722;19;20025;-73
2023/11/06 06:30:37;;;;;;;5.80;2.67;;;;;;;8.28;100.00;99680.53;6077596;19;20503;-73
2023/11/06 06:32:41;;;;;;;5.55;2.63;;;;;;;8.35;100.00;99662.78;6075649;19;20011;-73
2023/11/06 06:34:47;;;;;;;7.55;2.30;;;;;;;8.38;100.00;99677.47;6073266;19;20468;-73
2023/11/06 06:36:52;;;;;;;8.23;3.03;;;;;;;8.40;100.00;99680.88;6072480;19;20134;-74
2023/11/06 06:38:57;;;;;;;5.82;2.35;;;;;;;8.45;100.00;99673.66;6077577;19;20002;-73
2023/11/06 06:41:02;;;;;;;12.95;3.08;;;;;;;8.42;100.00;99679.03;6076160;19;20049;-73
2023/11/06 06:43:07;;;;;;;4.45;2.40;;;;;;;8.39;100.00;99679.16;6076729;19;20043;-73
2023/11/06 06:45:13;;;;;;;12.40;2.65;;;;;;;8.40;100.00;99689.59;6077702;19;20431;-73
2023/11/06 06:47:20;;;;;;;7.50;2.42;;;;;;;8.43;100.00;99683.38;6072269;19;20011;-72
2023/11/06 06:49:26;;;;;;;3.17;1.90;;;;;;;8.43;100.00;99680.75;6074696;19;20023;-73
2023/11/06 06:51:33;;;;;;;6.20;1.77;;;;;;;8.38;100.00;99690.56;6075971;19;20074;-73
2023/11/06 06:53:39;;;;;;;11.35;2.53;;;;;;;8.41;100.00;99693.91;6073853;19;20019;-73
2023/11/06 06:55:43;;;;;;;5.15;2.38;;;;;;;8.42;100.00;99690.34;6076264;19;20046;-72
2023/11/06 06:57:53;;;;;;;8.32;2.53;;;;;;;8.32;100.00;99683.84;6076008;19;20010;-73
2023/11/06 06:59:58;;;;;;;7.93;2.15;;;;;;;8.36;100.00;99698.50;6076976;19;20953;-73
2023/11/06 07:02:03;;;;;;;7.38;2.15;;;;;;;8.37;100.00;99705.41;6074392;19;20375;-73
2023/11/06 07:04:08;;;;;;;7.65;2.13;;;;;;;8.41;100.00;99706.16;6071640;19;20487;-73
2023/11/06 07:06:14;;;;;;;3.17;1.85;;;;;;;8.42;100.00;99710.44;6077149;19;20638;-73
2023/11/06 07:08:23;;;;;;;8.57;3.03;;;;;;;8.38;100.00;99712.34;6074988;19;21298;-72
2023/11/06 07:10:30;;;;;;;4.80;2.05;;;;;;;8.46;100.00;99714.63;6074717;19;20006;-73
2023/11/06 07:12:35;;;;;;;11.32;2.40;;;;;;;8.40;100.00;99707.06;6076292;19;20020;-74
2023/11/06 07:14:40;;;;;;;4.10;1.70;;;;;;;8.47;100.00;99711.91;6073364;19;20633;-73
2023/11/06 07:16:45;;;;;;;5.57;1.90;;;;;;;8.48;100.00;99705.78;6075603;19;20030;-72
2023/11/06 07:18:51;;;;;;;3.75;1.50;;;;;;;8.49;100.00;99712.69;6073449;19;20473;-72
2023/11/06 07:20:56;;;;;;;5.68;1.73;;;;;;;8.54;100.00;99720.31;6074986;19;20526;-71
2023/11/06 07:23:01;;;;;;;9.05;1.73;;;;;;;8.57;100.00;99720.16;6076420;19;20006;-72
2023/11/06 07:25:10;;;;;;;11.63;2.40;;;;;;;8.53;100.00;99732.56;6076997;19;20006;-72
2023/11/06 07:27:17;;;;;;;2.90;1.30;;;;;;;8.51;100.00;99721.31;6076179;19;20097;-72
2023/11/06 07:29:23;;;;;;;6.78;1.77;;;;;;;8.54;100.00;99726.41;6076029;19;20003;-73
2023/11/06 07:31:29;;;;;;;3.47;1.23;;;;;;;8.58;100.00;99732.31;6070510;19;20028;-73
2023/11/06 07:33:34;;;;;;;7.10;1.55;;;;;;;8.62;100.00;99730.41;6073325;19;20513;-72
2023/11/06 07:35:50;;;;;;;5.10;1.80;;;;;;;8.60;100.00;99740.13;6071955;19;20398;-73
2023/11/06 07:38:00;;;;;;;3.55;1.83;;;;;;;8.56;100.00;99740.28;6072742;19;20067;-73
2023/11/06 07:40:08;;;;;;;8.60;2.05;;;;;;;8.58;100.00;99732.31;6073646;19;20364;-73
2023/11/06 07:42:13;;;;;;;5.57;1.80;;;;;;;8.62;100.00;99744.34;6072379;19;20011;-73
2023/11/06 07:44:18;;;;;;;3.53;2.33;;;;;;;8.62;100.00;99743.50;6074492;19;20297;-73
2023/11/06 07:46:24;;;;;;;7.53;1.42;;;;;;;8.64;100.00;99734.66;6071013;19;20033;-74
2023/11/06 07:48:29;;;;;;;2.83;1.60;;;;;;;8.61;100.00;99744.41;6071980;19;20014;-73
2023/11/06 07:50:35;;;;;;;4.82;1.63;;;;;;;8.52;100.00;99738.72;6073976;19;20017;-74
2023/11/06 07:52:42;;;;;;;4.05;1.65;;;;;;;8.53;100.00;99742.19;6070587;19;20006;-72
2023/11/06 07:54:47;;;;;;;5.95;1.55;;;;;;;8.54;100.00;99747.34;6075118;19;20023;-72
2023/11/06 07:56:55;;;;;;;6.95;1.63;;;;;;;8.61;100.00;99739.19;6065961;19;20046;-72
2023/11/06 07:59:02;;;;;;;4.55;1.73;;;;;;;8.60;100.00;99734.88;6063348;19;20018;-73
2023/11/06 08:01:06;;;;;;;4.10;1.27;;;;;;;8.66;100.00;99743.28;6073705;19;20038;-72
2023/11/06 08:03:11;;;;;;;8.80;1.63;;;;;;;8.73;100.00;99747.28;6075111;19;20486;-71
2023/11/06 08:05:16;;;;;;;3.88;1.50;;;;;;;8.73;100.00;99742.03;6070023;19;20074;-71
2023/11/06 08:07:22;;;;;;;7.53;2.22;;;;;;;8.79;100.00;99741.75;6077441;19;20082;-73
2023/11/06 08:09:28;;;;;;;10.80;2.25;;;;;;;8.78;100.00;99754.91;6076419;19;20026;-71
2023/11/06 08:11:36;;;;;;;6.45;2.42;;;;;;;8.84;100.00;99751.97;6072883;19;20010;-72
2023/11/06 08:13:44;;;;;;;4.95;2.47;;;;;;;8.85;100.00;99752.84;6074222;19;20019;-73
2023/11/06 08:15:49;;;;;;;8.45;2.70;;;;;;;8.91;100.00;99760.38;6076324;19;20765;-73
2023/11/06 08:17:54;;;;;;;10.30;3.20;;;;;;;8.94;100.00;99760.22;6073544;19;20010;-74
2023/11/06 08:19:59;;;;;;;11.13;2.67;;;;;;;8.92;100.00;99772.53;6069228;19;20034;-73
2023/11/06 08:22:04;;;;;;;10.63;2.80;;;;;;;8.93;100.00;99769.84;6077764;19;20349;-71
2023/11/06 08:24:10;;;;;;;9.50;2.60;;;;;;;8.98;100.00;99783.56;6076701;19;20367;-73
2023/11/06 08:26:15;;;;;;;11.60;3.22;;;;;;;9.00;100.00;99775.63;6075515;19;20103;-72
2023/11/06 08:28:18;;;;;;;15.55;3.22;;;;;;;8.99;100.00;99772.16;6073601;19;20006;-72
2023/11/06 08:30:26;;;;;;;9.70;3.00;;;;;;;9.08;100.00;99765.59;6066872;19;20769;-73
2023/11/06 08:32:30;;;;;;;12.05;4.18;;;;;;;9.18;100.00;99777.28;6077020;19;20506;-72
2023/11/06 08:34:36;;;;;;;14.27;4.22;;;;;;;9.23;100.00;99774.44;6078771;19;20007;-71
2023/11/06 08:36:47;;;;;;;13.80;3.78;;;;;;;9.24;100.00;99768.25;6077261;19;20754;-72
2023/11/06 08:38:52;;;;;;;15.85;3.10;;;;;;;9.33;100.00;99762.53;6078147;19;20010;-71
2023/11/06 08:40:57;;;;;;;13.88;3.08;;;;;;;9.29;100.00;99779.34;6076831;19;20010;-72
2023/11/06 08:43:04;;;;;;;12.38;3.13;;;;;;;9.33;100.00;99772.19;6071110;19;20010;-71
2023/11/06 08:45:09;;;;;;;10.90;2.60;;;;;;;9.33;100.00;99761.72;6073519;19;20010;-72
2023/11/06 08:47:19;;;;;;;6.75;3.10;;;;;;;9.37;100.00;99768.47;6072803;19;20957;-72
2023/11/06 08:49:25;;;;;;;6.45;3.40;;;;;;;9.43;100.00;99770.78;6071736;19;20023;-71
2023/11/06 08:51:31;;;;;;;10.70;2.35;;;;;;;9.43;100.00;99781.28;6074427;19;20003;-72
2023/11/06 08:53:36;;;;;;;9.70;2.80;;;;;;;9.44;100.00;99770.69;6071644;19;20009;-71
2023/11/06 08:55:41;;;;;;;13.25;2.70;;;;;;;9.53;100.00;99777.25;6074882;19;20042;-71
2023/11/06 08:57:46;;;;;;;11.13;2.70;;;;;;;9.61;100.00;99767.19;6071223;19;20003;-71
2023/11/06 08:59:49;;;;;;;12.00;3.15;;;;;;;9.63;100.00;99765.28;6070618;19;20159;-72
2023/11/06 09:01:54;;;;;;;6.18;2.30;;;;;;;9.67;100.00;99771.25;6072903;19;20011;-72
2023/11/06 09:04:03;;;;;;;10.55;2.55;;;;;;;9.65;100.00;99768.69;6068504;19;20009;-72
2023/11/06 09:06:08;;;;;;;8.80;2.13;;;;;;;9.68;100.00;99780.78;6074139;19;20013;-72
2023/11/06 09:08:15;;;;;;;7.35;2.55;;;;;;;9.78;100.00;99773.28;6070118;19;20002;-71
2023/11/06 09:10:20;;;;;;;12.05;2.38;;;;;;;9.83;100.00;99781.75;6073367;19;20003;-71
2023/11/06 09:12:25;;;;;;;11.75;2.22;;;;;;;9.87;100.00;99778.91;6071572;19;20002;-71
2023/11/06 09:14:30;;;;;;;10.63;2.25;;;;;;;9.91;100.00;99797.94;6076238;19;20030;-71
2023/11/06 09:16:37;;;;;;;8.88;1.80;;;;;;;9.91;100.00;99790.06;6077399;19;20006;-72
2023/11/06 09:18:42;;;;;;;4.25;1.80;;;;;;;9.91;100.00;99803.19;6074759;19;20010;-72
2023/11/06 09:20:51;;;;;;;4.97;1.75;;;;;;;9.90;100.00;99796.25;6074584;19;20033;-71
2023/11/06 09:22:56;;;;;;;5.97;1.88;;;;;;;10.01;100.00;99812.25;6073648;19;20014;-71
2023/11/06 09:25:01;;;;;;;8.07;1.63;;;;;;;10.24;100.00;99821.50;6074502;19;20015;-72
2023/11/06 09:27:06;;;;;;;3.70;1.70;;;;;;;10.31;100.00;99808.88;6073824;19;20014;-71
2023/11/06 09:29:11;;;;;;;9.45;2.30;;;;;;;10.27;100.00;99817.84;6072501;19;20002;-71
2023/11/06 09:31:19;;;;;;;9.60;2.67;;;;;;;10.15;100.00;99823.78;6071525;19;20789;-72
2023/11/06 09:33:25;;;;;;;14.10;2.47;;;;;;;10.32;100.00;99823.69;6071602;19;20021;-72
2023/11/06 09:35:30;;;;;;;1.63;1.38;;;;;;;10.55;100.00;99823.25;6071073;19;20498;-71
2023/11/06 09:37:38;;;;;;;6.22;1.83;;;;;;;10.66;100.00;99824.44;6073775;19;20455;-74
2023/11/06 09:39:43;;;;;;;2.85;1.75;;;;;;;10.77;100.00;99825.53;6078720;19;20007;-71
2023/11/06 09:41:51;;;;;;;6.22;1.88;;;;;;;10.71;100.00;99822.38;6070492;19;20395;-71
2023/11/06 09:43:53;;;;;;;7.75;1.58;;;;;;;10.48;100.00;99824.56;6075294;19;20010;-70
2023/11/06 09:46:00;;;;;;;7.90;2.47;;;;;;;10.39;100.00;99840.81;6076242;19;20082;-71
2023/11/06 09:48:11;;;;;;;9.02;1.90;;;;;;;10.23;100.00;99839.94;6074015;19;20970;-71
2023/11/06 09:50:22;;;;;;;4.75;1.73;;;;;;;10.23;100.00;99853.06;6077698;19;20648;-71